PWSweather.com
Personal Weather Stations
Station Observations
DEKREUPEL
Wsv De Kreupel, AndijkNL 1619 JV

Wsv De KreupelAndijkNL 1619 JV

Lat: 52.7417364, Lon: 5.1809356

Elevation: 33

Station Type: Rainwise MKiii LR

Latest ConditionsUpdated 4:49:00 AM GMT+01:01 Friday, Oct 19, 2018
Currently Today's Max Today's Min Today's Average
Temperature 41.4°F5.2°C 49.1°F9.5°C 38.1°F3.4°C 44.9°F7.2°C
Dew Point 67.0°F19.4°C 75.7°F24.3°C 63.3°F17.4°C 71.0°F21.7°C
Winds 4.1 mph ESE6.6 kmh ESE 10.2 mph -16.4 kmh - - 6.9 mph 11.1 kmh
Wind Gusts 5.7 mph9.2 kmh 14.7 mph23.7 kmh - -
Humidity - - - -
Pressure 30.41 in1029.8 mb 30.43 in1030.5 mb 30.41 in1029.8 mb -
Hour Temp Dew Point Humidity Winds Wind Gusts Pressure Precip Precip Rate Daily Precip Total
04:49 AM 41.4°F5.2°C 67.0°F19.4°C - 4.1 mph ESE6.6 kmh ESE 5.7 mph9.2 kmh 30.41 in1029.8 mb 0.00 in0.0 mm 0.00 in0.0 mm 0.00 in0.0 mm
04:44 AM 42.8°F6.0°C 68.6°F20.3°C - 4.2 mph E6.8 kmh E 6.3 mph10.1 kmh 30.41 in1029.8 mb 0.00 in0.0 mm 0.00 in0.0 mm 0.00 in0.0 mm
04:39 AM 41.0°F5.0°C 66.6°F19.2°C - 3.9 mph ESE6.3 kmh ESE 4.9 mph7.9 kmh 30.41 in1029.8 mb 0.00 in0.0 mm 0.00 in0.0 mm 0.00 in0.0 mm
04:34 AM 41.7°F5.4°C 67.4°F19.7°C - 5.1 mph ESE8.2 kmh ESE 7.5 mph12.1 kmh 30.41 in1029.8 mb 0.00 in0.0 mm 0.00 in0.0 mm 0.00 in0.0 mm
04:29 AM 41.7°F5.4°C 67.3°F19.6°C - 4.7 mph E7.6 kmh E 7.5 mph12.1 kmh 30.41 in1029.8 mb 0.00 in0.0 mm 0.00 in0.0 mm 0.00 in0.0 mm
04:24 AM 39.1°F3.9°C 64.5°F18.1°C - 4.5 mph E7.2 kmh E 6.9 mph11.1 kmh 30.41 in1029.8 mb 0.00 in0.0 mm 0.00 in0.0 mm 0.00 in0.0 mm
04:19 AM 39.5°F4.2°C 64.9°F18.3°C - 4.7 mph E7.6 kmh E 7.7 mph12.4 kmh 30.41 in1029.8 mb 0.00 in0.0 mm 0.00 in0.0 mm 0.00 in0.0 mm
04:14 AM 40.1°F4.5°C 65.6°F18.7°C - 4.8 mph E7.7 kmh E 7.0 mph11.3 kmh 30.41 in1029.8 mb 0.00 in0.0 mm 0.00 in0.0 mm 0.00 in0.0 mm
04:09 AM 38.6°F3.7°C 63.9°F17.7°C - 5.8 mph E9.3 kmh E 11.8 mph19.0 kmh 30.41 in1029.8 mb 0.00 in0.0 mm 0.00 in0.0 mm 0.00 in0.0 mm
04:04 AM 38.5°F3.6°C 63.7°F17.6°C - 5.6 mph E9.0 kmh E 8.8 mph14.2 kmh 30.41 in1029.8 mb 0.00 in0.0 mm 0.00 in0.0 mm 0.00 in0.0 mm
03:59 AM 38.8°F3.8°C 64.1°F17.8°C - 6.9 mph E11.1 kmh E 11.4 mph18.3 kmh 30.41 in1029.8 mb 0.00 in0.0 mm 0.00 in0.0 mm 0.00 in0.0 mm
03:54 AM 38.7°F3.7°C 64.0°F17.8°C - 8.8 mph E14.2 kmh E 13.1 mph21.1 kmh 30.41 in1029.8 mb 0.00 in0.0 mm 0.00 in0.0 mm 0.00 in0.0 mm
03:49 AM 39.0°F3.9°C 64.4°F18.0°C - 9.4 mph E15.1 kmh E 13.5 mph21.7 kmh 30.41 in1029.8 mb 0.00 in0.0 mm 0.00 in0.0 mm 0.00 in0.0 mm
03:44 AM 40.6°F4.8°C 66.1°F18.9°C - 9.6 mph E15.4 kmh E 13.3 mph21.4 kmh 30.41 in1029.8 mb 0.00 in0.0 mm 0.00 in0.0 mm 0.00 in0.0 mm
03:39 AM 43.8°F6.6°C 69.6°F20.9°C - 6.5 mph E10.5 kmh E 8.7 mph14.0 kmh 30.41 in1029.8 mb 0.00 in0.0 mm 0.00 in0.0 mm 0.00 in0.0 mm
03:34 AM 45.8°F7.7°C 72.0°F22.2°C - 4.8 mph E7.7 kmh E 9.2 mph14.8 kmh 30.41 in1029.8 mb 0.00 in0.0 mm 0.00 in0.0 mm 0.00 in0.0 mm
03:29 AM 46.5°F8.1°C 72.8°F22.7°C - 7.9 mph E12.7 kmh E 11.8 mph19.0 kmh 30.41 in1029.8 mb 0.00 in0.0 mm 0.00 in0.0 mm 0.00 in0.0 mm
03:24 AM 46.6°F8.1°C 72.9°F22.7°C - 6.8 mph E10.9 kmh E 9.7 mph15.6 kmh 30.41 in1029.8 mb 0.00 in0.0 mm 0.00 in0.0 mm 0.00 in0.0 mm
03:19 AM 46.7°F8.2°C 73.0°F22.8°C - 7.6 mph ESE12.2 kmh ESE 9.8 mph15.8 kmh 30.41 in1029.8 mb 0.00 in0.0 mm 0.00 in0.0 mm 0.00 in0.0 mm
03:14 AM 46.8°F8.2°C 73.1°F22.8°C - 7.4 mph ESE11.9 kmh ESE 11.3 mph18.2 kmh 30.41 in1029.8 mb 0.00 in0.0 mm 0.00 in0.0 mm 0.00 in0.0 mm
03:09 AM 46.9°F8.3°C 73.2°F22.9°C - 4.7 mph ESE7.6 kmh ESE 7.3 mph11.7 kmh 30.41 in1029.8 mb 0.00 in0.0 mm 0.00 in0.0 mm 0.00 in0.0 mm
03:04 AM 47.1°F8.4°C 73.4°F23.0°C - 5.9 mph E9.5 kmh E 9.3 mph15.0 kmh 30.41 in1029.8 mb 0.00 in0.0 mm 0.00 in0.0 mm 0.00 in0.0 mm
02:59 AM 47.2°F8.4°C 73.5°F23.1°C - 5.7 mph E9.2 kmh E 8.5 mph13.7 kmh 30.42 in1030.1 mb 0.00 in0.0 mm 0.00 in0.0 mm 0.00 in0.0 mm
02:54 AM 47.2°F8.4°C 73.5°F23.1°C - 7.1 mph ESE11.4 kmh ESE 9.9 mph15.9 kmh 30.41 in1029.8 mb 0.00 in0.0 mm 0.00 in0.0 mm 0.00 in0.0 mm
02:49 AM 47.3°F8.5°C 73.7°F23.2°C - 9.6 mph ESE15.4 kmh ESE 14.1 mph22.7 kmh 30.41 in1029.8 mb 0.00 in0.0 mm 0.00 in0.0 mm 0.00 in0.0 mm
02:44 AM 47.5°F8.6°C 73.9°F23.3°C - 8.6 mph E13.8 kmh E 12.4 mph20.0 kmh 30.41 in1029.8 mb 0.00 in0.0 mm 0.00 in0.0 mm 0.00 in0.0 mm
02:39 AM 47.3°F8.5°C 73.7°F23.2°C - 9.5 mph ESE15.3 kmh ESE 14.1 mph22.7 kmh 30.41 in1029.8 mb 0.00 in0.0 mm 0.00 in0.0 mm 0.00 in0.0 mm
02:34 AM 47.4°F8.6°C 73.8°F23.2°C - 9.1 mph ESE14.6 kmh ESE 13.4 mph21.6 kmh 30.41 in1029.8 mb 0.00 in0.0 mm 0.00 in0.0 mm 0.00 in0.0 mm
02:29 AM 47.6°F8.7°C 74.0°F23.3°C - 10.1 mph E16.3 kmh E 13.6 mph21.9 kmh 30.41 in1029.8 mb 0.00 in0.0 mm 0.00 in0.0 mm 0.00 in0.0 mm
02:24 AM 47.8°F8.8°C 74.2°F23.4°C - 7.8 mph E12.6 kmh E 10.9 mph17.5 kmh 30.41 in1029.8 mb 0.00 in0.0 mm 0.00 in0.0 mm 0.00 in0.0 mm
02:19 AM 48.1°F8.9°C 74.4°F23.6°C - 10.0 mph E16.1 kmh E 13.9 mph22.4 kmh 30.42 in1030.1 mb 0.00 in0.0 mm 0.00 in0.0 mm 0.00 in0.0 mm
02:14 AM 48.2°F9.0°C 74.6°F23.7°C - 8.7 mph E14.0 kmh E 12.1 mph19.5 kmh 30.42 in1030.1 mb 0.00 in0.0 mm 0.00 in0.0 mm 0.00 in0.0 mm
02:09 AM 48.2°F9.0°C 74.7°F23.7°C - 10.2 mph E16.4 kmh E 14.0 mph22.5 kmh 30.42 in1030.1 mb 0.00 in0.0 mm 0.00 in0.0 mm 0.00 in0.0 mm
02:04 AM 48.5°F9.2°C 75.0°F23.9°C - 6.2 mph E10.0 kmh E 9.2 mph14.8 kmh 30.42 in1030.1 mb 0.00 in0.0 mm 0.00 in0.0 mm 0.00 in0.0 mm
01:59 AM 48.5°F9.2°C 74.9°F23.8°C - 4.5 mph E7.2 kmh E 7.7 mph12.4 kmh 30.42 in1030.1 mb 0.00 in0.0 mm 0.00 in0.0 mm 0.00 in0.0 mm
01:54 AM 48.3°F9.1°C 74.7°F23.7°C - 6.8 mph ESE10.9 kmh ESE 11.6 mph18.7 kmh 30.42 in1030.1 mb 0.00 in0.0 mm 0.00 in0.0 mm 0.00 in0.0 mm
01:49 AM 47.8°F8.8°C 74.2°F23.4°C - 9.1 mph E14.6 kmh E 13.9 mph22.4 kmh 30.42 in1030.1 mb 0.00 in0.0 mm 0.00 in0.0 mm 0.00 in0.0 mm
01:44 AM 47.1°F8.4°C 73.4°F23.0°C - 4.9 mph ESE7.9 kmh ESE 7.7 mph12.4 kmh 30.42 in1030.1 mb 0.00 in0.0 mm 0.00 in0.0 mm 0.00 in0.0 mm
01:39 AM 47.1°F8.4°C 73.3°F22.9°C - 6.5 mph ESE10.5 kmh ESE 10.4 mph16.7 kmh 30.42 in1030.1 mb 0.00 in0.0 mm 0.00 in0.0 mm 0.00 in0.0 mm
01:34 AM 46.8°F8.2°C 73.1°F22.8°C - 7.1 mph E11.4 kmh E 10.6 mph17.1 kmh 30.42 in1030.1 mb 0.00 in0.0 mm 0.00 in0.0 mm 0.00 in0.0 mm
01:29 AM 46.6°F8.1°C 72.9°F22.7°C - 8.5 mph ESE13.7 kmh ESE 12.9 mph20.8 kmh 30.42 in1030.1 mb 0.00 in0.0 mm 0.00 in0.0 mm 0.00 in0.0 mm
01:24 AM 45.3°F7.4°C 71.4°F21.9°C - 9.0 mph ESE14.5 kmh ESE 12.2 mph19.6 kmh 30.42 in1030.1 mb 0.00 in0.0 mm 0.00 in0.0 mm 0.00 in0.0 mm
01:19 AM 43.2°F6.2°C 69.1°F20.6°C - 7.0 mph E11.3 kmh E 11.2 mph18.0 kmh 30.42 in1030.1 mb 0.00 in0.0 mm 0.00 in0.0 mm 0.00 in0.0 mm
01:14 AM 45.0°F7.2°C 71.1°F21.7°C - 5.5 mph E8.9 kmh E 7.7 mph12.4 kmh 30.42 in1030.1 mb 0.00 in0.0 mm 0.00 in0.0 mm 0.00 in0.0 mm
01:09 AM 47.9°F8.8°C 74.3°F23.5°C - 5.0 mph ESE8.0 kmh ESE 8.1 mph13.0 kmh 30.42 in1030.1 mb 0.00 in0.0 mm 0.00 in0.0 mm 0.00 in0.0 mm
01:04 AM 48.4°F9.1°C 74.9°F23.8°C - 5.0 mph ESE8.0 kmh ESE 7.1 mph11.4 kmh 30.42 in1030.1 mb 0.00 in0.0 mm 0.00 in0.0 mm 0.00 in0.0 mm
12:59 AM 48.6°F9.2°C 75.1°F23.9°C - 6.0 mph ESE9.7 kmh ESE 8.9 mph14.3 kmh 30.42 in1030.1 mb 0.00 in0.0 mm 0.00 in0.0 mm 0.00 in0.0 mm
12:54 AM 48.8°F9.3°C 75.3°F24.1°C - 5.5 mph ESE8.9 kmh ESE 8.5 mph13.7 kmh 30.42 in1030.1 mb 0.00 in0.0 mm 0.00 in0.0 mm 0.00 in0.0 mm
12:49 AM 49.1°F9.5°C 75.7°F24.3°C - 5.4 mph ESE8.7 kmh ESE 7.4 mph11.9 kmh 30.42 in1030.1 mb 0.00 in0.0 mm 0.00 in0.0 mm 0.00 in0.0 mm
12:44 AM 49.1°F9.5°C 75.7°F24.3°C - 4.5 mph E7.2 kmh E 7.3 mph11.7 kmh 30.42 in1030.1 mb 0.00 in0.0 mm 0.00 in0.0 mm 0.00 in0.0 mm
12:39 AM 48.9°F9.4°C 75.5°F24.2°C - 4.5 mph E7.2 kmh E 7.2 mph11.6 kmh 30.42 in1030.1 mb 0.00 in0.0 mm 0.00 in0.0 mm 0.00 in0.0 mm
12:34 AM 48.3°F9.1°C 74.8°F23.8°C - 6.5 mph E10.5 kmh E 9.9 mph15.9 kmh 30.42 in1030.1 mb 0.00 in0.0 mm 0.00 in0.0 mm 0.00 in0.0 mm
12:29 AM 46.1°F7.8°C 72.3°F22.4°C - 8.2 mph E13.2 kmh E 11.6 mph18.7 kmh 30.42 in1030.1 mb 0.00 in0.0 mm 0.00 in0.0 mm 0.00 in0.0 mm
12:24 AM 41.7°F5.4°C 67.4°F19.7°C - 9.2 mph E14.8 kmh E 14.7 mph23.7 kmh 30.42 in1030.1 mb 0.00 in0.0 mm 0.00 in0.0 mm 0.00 in0.0 mm
12:19 AM 40.7°F4.8°C 66.3°F19.1°C - 7.9 mph ESE12.7 kmh ESE 11.2 mph18.0 kmh 30.42 in1030.1 mb 0.00 in0.0 mm 0.00 in0.0 mm 0.00 in0.0 mm
12:14 AM 40.9°F4.9°C 66.5°F19.2°C - 7.6 mph E12.2 kmh E 10.2 mph16.4 kmh 30.42 in1030.1 mb 0.00 in0.0 mm 0.00 in0.0 mm 0.00 in0.0 mm
12:09 AM 38.5°F3.6°C 63.8°F17.7°C - 9.3 mph E15.0 kmh E 13.5 mph21.7 kmh 30.42 in1030.1 mb 0.00 in0.0 mm 0.00 in0.0 mm 0.00 in0.0 mm
12:04 AM 38.1°F3.4°C 63.3°F17.4°C - 8.6 mph E13.8 kmh E 12.8 mph20.6 kmh 30.43 in1030.5 mb 0.00 in0.0 mm 0.00 in0.0 mm 0.00 in0.0 mm